sensor_id;sensor_type;location;lat;lon;timestamp;P1;durP1;ratioP1;P2;durP2;ratioP2
4885;SDS011;2457;51.788;6.136;2022-07-03T00:00:37;4.23;;;1.67;;
4885;SDS011;2457;51.788;6.136;2022-07-03T00:03:04;4.17;;;1.73;;
4885;SDS011;2457;51.788;6.136;2022-07-03T00:05:31;7.10;;;1.60;;
4885;SDS011;2457;51.788;6.136;2022-07-03T00:07:58;7.73;;;1.97;;
4885;SDS011;2457;51.788;6.136;2022-07-03T00:10:26;4.30;;;1.37;;
4885;SDS011;2457;51.788;6.136;2022-07-03T00:12:53;5.10;;;1.47;;
4885;SDS011;2457;51.788;6.136;2022-07-03T00:15:20;4.87;;;1.70;;
4885;SDS011;2457;51.788;6.136;2022-07-03T00:17:48;5.03;;;1.30;;
4885;SDS011;2457;51.788;6.136;2022-07-03T00:20:15;6.17;;;1.50;;
4885;SDS011;2457;51.788;6.136;2022-07-03T00:22:43;3.57;;;1.30;;
4885;SDS011;2457;51.788;6.136;2022-07-03T00:25:11;4.40;;;1.60;;
4885;SDS011;2457;51.788;6.136;2022-07-03T00:27:39;4.20;;;1.73;;
4885;SDS011;2457;51.788;6.136;2022-07-03T00:30:07;3.67;;;1.43;;
4885;SDS011;2457;51.788;6.136;2022-07-03T00:32:35;8.03;;;1.80;;
4885;SDS011;2457;51.788;6.136;2022-07-03T00:35:04;4.23;;;1.60;;
4885;SDS011;2457;51.788;6.136;2022-07-03T00:37:31;3.93;;;1.50;;
4885;SDS011;2457;51.788;6.136;2022-07-03T00:39:59;6.23;;;1.93;;
4885;SDS011;2457;51.788;6.136;2022-07-03T00:42:27;3.40;;;1.40;;
4885;SDS011;2457;51.788;6.136;2022-07-03T00:44:56;8.13;;;1.80;;
4885;SDS011;2457;51.788;6.136;2022-07-03T00:47:24;3.43;;;1.33;;
4885;SDS011;2457;51.788;6.136;2022-07-03T00:49:53;3.87;;;1.70;;
4885;SDS011;2457;51.788;6.136;2022-07-03T00:52:21;8.23;;;1.70;;
4885;SDS011;2457;51.788;6.136;2022-07-03T00:54:52;3.40;;;1.30;;
4885;SDS011;2457;51.788;6.136;2022-07-03T00:57:20;4.10;;;1.57;;
4885;SDS011;2457;51.788;6.136;2022-07-03T00:59:48;4.40;;;1.53;;
4885;SDS011;2457;51.788;6.136;2022-07-03T01:02:22;3.33;;;1.60;;
4885;SDS011;2457;51.788;6.136;2022-07-03T01:04:45;3.33;;;1.37;;
4885;SDS011;2457;51.788;6.136;2022-07-03T01:07:39;4.20;;;1.60;;
4885;SDS011;2457;51.788;6.136;2022-07-03T01:10:04;4.10;;;1.60;;
4885;SDS011;2457;51.788;6.136;2022-07-03T01:12:46;4.20;;;1.67;;
4885;SDS011;2457;51.788;6.136;2022-07-03T01:15:19;3.70;;;1.60;;
4885;SDS011;2457;51.788;6.136;2022-07-03T01:17:47;3.20;;;1.23;;
4885;SDS011;2457;51.788;6.136;2022-07-03T01:20:13;4.40;;;1.50;;
4885;SDS011;2457;51.788;6.136;2022-07-03T01:22:45;4.67;;;1.80;;
4885;SDS011;2457;51.788;6.136;2022-07-03T01:30:28;4.60;;;1.50;;
4885;SDS011;2457;51.788;6.136;2022-07-03T01:32:59;5.97;;;1.60;;
4885;SDS011;2457;51.788;6.136;2022-07-03T01:35:29;5.70;;;1.20;;
4885;SDS011;2457;51.788;6.136;2022-07-03T01:37:56;4.33;;;1.70;;
4885;SDS011;2457;51.788;6.136;2022-07-03T01:40:23;3.80;;;1.30;;
4885;SDS011;2457;51.788;6.136;2022-07-03T01:42:52;5.10;;;1.33;;
4885;SDS011;2457;51.788;6.136;2022-07-03T01:45:20;3.63;;;1.33;;
4885;SDS011;2457;51.788;6.136;2022-07-03T01:47:48;5.47;;;1.97;;
4885;SDS011;2457;51.788;6.136;2022-07-03T01:50:16;9.67;;;1.50;;
4885;SDS011;2457;51.788;6.136;2022-07-03T01:52:44;6.00;;;1.70;;
4885;SDS011;2457;51.788;6.136;2022-07-03T01:55:14;5.83;;;1.40;;
4885;SDS011;2457;51.788;6.136;2022-07-03T01:57:43;4.33;;;1.50;;
4885;SDS011;2457;51.788;6.136;2022-07-03T02:00:13;4.07;;;1.40;;
4885;SDS011;2457;51.788;6.136;2022-07-03T02:05:26;5.23;;;1.67;;
4885;SDS011;2457;51.788;6.136;2022-07-03T02:07:57;4.20;;;1.67;;
4885;SDS011;2457;51.788;6.136;2022-07-03T02:10:26;5.63;;;1.80;;
4885;SDS011;2457;51.788;6.136;2022-07-03T02:12:52;4.77;;;1.57;;
4885;SDS011;2457;51.788;6.136;2022-07-03T02:15:30;5.87;;;1.70;;
4885;SDS011;2457;51.788;6.136;2022-07-03T02:17:54;5.07;;;1.33;;
4885;SDS011;2457;51.788;6.136;2022-07-03T02:20:22;5.40;;;1.60;;
4885;SDS011;2457;51.788;6.136;2022-07-03T02:22:56;3.70;;;1.30;;
4885;SDS011;2457;51.788;6.136;2022-07-03T02:25:25;6.70;;;1.47;;
4885;SDS011;2457;51.788;6.136;2022-07-03T02:28:03;3.00;;;1.40;;
4885;SDS011;2457;51.788;6.136;2022-07-03T02:30:24;3.20;;;1.40;;
4885;SDS011;2457;51.788;6.136;2022-07-03T02:32:53;4.00;;;1.60;;
4885;SDS011;2457;51.788;6.136;2022-07-03T02:35:25;3.03;;;1.20;;
4885;SDS011;2457;51.788;6.136;2022-07-03T02:37:53;2.93;;;1.40;;
4885;SDS011;2457;51.788;6.136;2022-07-03T02:40:31;4.50;;;1.80;;
4885;SDS011;2457;51.788;6.136;2022-07-03T02:43:01;4.37;;;2.10;;
4885;SDS011;2457;51.788;6.136;2022-07-03T02:45:26;13.50;;;2.00;;
4885;SDS011;2457;51.788;6.136;2022-07-03T02:48:02;5.80;;;1.90;;
4885;SDS011;2457;51.788;6.136;2022-07-03T02:50:26;6.30;;;2.33;;
4885;SDS011;2457;51.788;6.136;2022-07-03T02:53:07;4.87;;;2.53;;
4885;SDS011;2457;51.788;6.136;2022-07-03T02:55:34;6.13;;;2.20;;
4885;SDS011;2457;51.788;6.136;2022-07-03T03:00:43;5.63;;;2.53;;
4885;SDS011;2457;51.788;6.136;2022-07-03T03:03:11;4.97;;;2.50;;
4885;SDS011;2457;51.788;6.136;2022-07-03T03:05:48;6.73;;;2.63;;
4885;SDS011;2457;51.788;6.136;2022-07-03T03:08:16;5.03;;;2.70;;
4885;SDS011;2457;51.788;6.136;2022-07-03T03:10:47;4.30;;;2.10;;
4885;SDS011;2457;51.788;6.136;2022-07-03T03:13:15;4.67;;;2.27;;
4885;SDS011;2457;51.788;6.136;2022-07-03T03:15:44;6.50;;;2.20;;
4885;SDS011;2457;51.788;6.136;2022-07-03T03:18:12;4.10;;;2.27;;
4885;SDS011;2457;51.788;6.136;2022-07-03T03:20:40;7.40;;;2.50;;
4885;SDS011;2457;51.788;6.136;2022-07-03T03:25:38;3.80;;;1.90;;
4885;SDS011;2457;51.788;6.136;2022-07-03T03:28:05;8.00;;;2.40;;
4885;SDS011;2457;51.788;6.136;2022-07-03T03:30:34;4.23;;;2.40;;
4885;SDS011;2457;51.788;6.136;2022-07-03T03:33:02;5.73;;;2.33;;
4885;SDS011;2457;51.788;6.136;2022-07-03T03:35:30;4.40;;;2.17;;
4885;SDS011;2457;51.788;6.136;2022-07-03T03:37:57;7.57;;;1.97;;
4885;SDS011;2457;51.788;6.136;2022-07-03T03:40:24;5.00;;;2.33;;
4885;SDS011;2457;51.788;6.136;2022-07-03T03:42:52;5.73;;;2.40;;
4885;SDS011;2457;51.788;6.136;2022-07-03T03:45:19;5.20;;;2.67;;
4885;SDS011;2457;51.788;6.136;2022-07-03T03:47:46;3.57;;;1.93;;
4885;SDS011;2457;51.788;6.136;2022-07-03T03:50:13;4.43;;;2.10;;
4885;SDS011;2457;51.788;6.136;2022-07-03T03:52:41;4.23;;;1.70;;
4885;SDS011;2457;51.788;6.136;2022-07-03T03:55:08;5.80;;;2.07;;
4885;SDS011;2457;51.788;6.136;2022-07-03T03:57:36;7.27;;;1.80;;
4885;SDS011;2457;51.788;6.136;2022-07-03T04:00:04;5.13;;;1.70;;
4885;SDS011;2457;51.788;6.136;2022-07-03T04:02:31;3.77;;;1.80;;
4885;SDS011;2457;51.788;6.136;2022-07-03T04:04:59;5.90;;;1.90;;
4885;SDS011;2457;51.788;6.136;2022-07-03T04:07:26;3.40;;;1.50;;
4885;SDS011;2457;51.788;6.136;2022-07-03T04:09:53;5.80;;;1.73;;
4885;SDS011;2457;51.788;6.136;2022-07-03T04:12:20;3.97;;;1.70;;
4885;SDS011;2457;51.788;6.136;2022-07-03T04:14:48;3.87;;;1.70;;
4885;SDS011;2457;51.788;6.136;2022-07-03T04:17:15;3.90;;;1.80;;
4885;SDS011;2457;51.788;6.136;2022-07-03T04:19:43;4.80;;;1.70;;
4885;SDS011;2457;51.788;6.136;2022-07-03T04:22:10;4.67;;;1.87;;
4885;SDS011;2457;51.788;6.136;2022-07-03T04:24:38;3.70;;;1.70;;
4885;SDS011;2457;51.788;6.136;2022-07-03T04:27:05;5.23;;;1.60;;
4885;SDS011;2457;51.788;6.136;2022-07-03T04:29:32;3.60;;;1.60;;
4885;SDS011;2457;51.788;6.136;2022-07-03T04:31:59;4.90;;;1.40;;
4885;SDS011;2457;51.788;6.136;2022-07-03T04:34:27;4.80;;;2.27;;
4885;SDS011;2457;51.788;6.136;2022-07-03T04:36:54;4.87;;;1.73;;
4885;SDS011;2457;51.788;6.136;2022-07-03T04:39:21;6.73;;;1.60;;
4885;SDS011;2457;51.788;6.136;2022-07-03T04:41:49;6.30;;;1.93;;
4885;SDS011;2457;51.788;6.136;2022-07-03T04:44:16;4.97;;;2.17;;
4885;SDS011;2457;51.788;6.136;2022-07-03T04:46:43;3.67;;;1.57;;
4885;SDS011;2457;51.788;6.136;2022-07-03T04:49:10;3.80;;;1.80;;
4885;SDS011;2457;51.788;6.136;2022-07-03T04:51:38;6.90;;;1.90;;
4885;SDS011;2457;51.788;6.136;2022-07-03T04:54:05;6.50;;;1.90;;
4885;SDS011;2457;51.788;6.136;2022-07-03T04:56:32;7.57;;;1.60;;
4885;SDS011;2457;51.788;6.136;2022-07-03T04:58:59;4.40;;;1.73;;
4885;SDS011;2457;51.788;6.136;2022-07-03T05:01:27;5.10;;;1.83;;
4885;SDS011;2457;51.788;6.136;2022-07-03T05:03:54;7.73;;;2.17;;
4885;SDS011;2457;51.788;6.136;2022-07-03T05:06:21;5.63;;;1.77;;
4885;SDS011;2457;51.788;6.136;2022-07-03T05:08:48;6.03;;;1.90;;
4885;SDS011;2457;51.788;6.136;2022-07-03T05:11:16;4.10;;;1.77;;
4885;SDS011;2457;51.788;6.136;2022-07-03T05:13:43;6.47;;;1.90;;
4885;SDS011;2457;51.788;6.136;2022-07-03T05:16:10;6.00;;;1.80;;
4885;SDS011;2457;51.788;6.136;2022-07-03T05:18:38;3.53;;;1.40;;
4885;SDS011;2457;51.788;6.136;2022-07-03T05:21:05;4.00;;;1.30;;
4885;SDS011;2457;51.788;6.136;2022-07-03T05:23:32;4.77;;;1.80;;
4885;SDS011;2457;51.788;6.136;2022-07-03T05:25:59;5.70;;;1.87;;
4885;SDS011;2457;51.788;6.136;2022-07-03T05:28:27;3.10;;;1.20;;
4885;SDS011;2457;51.788;6.136;2022-07-03T05:30:54;5.20;;;1.77;;
4885;SDS011;2457;51.788;6.136;2022-07-03T05:33:21;2.90;;;1.20;;
4885;SDS011;2457;51.788;6.136;2022-07-03T05:35:49;7.90;;;1.87;;
4885;SDS011;2457;51.788;6.136;2022-07-03T05:38:17;3.63;;;1.63;;
4885;SDS011;2457;51.788;6.136;2022-07-03T05:40:46;3.83;;;1.23;;
4885;SDS011;2457;51.788;6.136;2022-07-03T05:43:13;3.57;;;1.53;;
4885;SDS011;2457;51.788;6.136;2022-07-03T05:45:40;8.60;;;1.97;;
4885;SDS011;2457;51.788;6.136;2022-07-03T05:48:08;4.37;;;1.50;;
4885;SDS011;2457;51.788;6.136;2022-07-03T05:50:35;4.53;;;1.40;;
4885;SDS011;2457;51.788;6.136;2022-07-03T05:53:02;4.10;;;1.60;;
4885;SDS011;2457;51.788;6.136;2022-07-03T05:55:29;7.83;;;1.57;;
4885;SDS011;2457;51.788;6.136;2022-07-03T05:57:57;3.40;;;1.87;;
4885;SDS011;2457;51.788;6.136;2022-07-03T06:00:24;6.63;;;1.70;;
4885;SDS011;2457;51.788;6.136;2022-07-03T06:02:51;5.27;;;1.67;;
4885;SDS011;2457;51.788;6.136;2022-07-03T06:05:18;3.23;;;1.30;;
4885;SDS011;2457;51.788;6.136;2022-07-03T06:07:46;3.30;;;1.23;;
4885;SDS011;2457;51.788;6.136;2022-07-03T06:10:13;5.50;;;1.67;;
4885;SDS011;2457;51.788;6.136;2022-07-03T06:12:40;4.80;;;1.30;;
4885;SDS011;2457;51.788;6.136;2022-07-03T06:15:08;4.97;;;1.23;;
4885;SDS011;2457;51.788;6.136;2022-07-03T06:17:35;4.40;;;1.70;;
4885;SDS011;2457;51.788;6.136;2022-07-03T06:20:03;4.80;;;1.40;;
4885;SDS011;2457;51.788;6.136;2022-07-03T06:22:31;4.27;;;1.60;;
4885;SDS011;2457;51.788;6.136;2022-07-03T06:24:58;3.70;;;1.50;;
4885;SDS011;2457;51.788;6.136;2022-07-03T06:27:25;5.53;;;1.33;;
4885;SDS011;2457;51.788;6.136;2022-07-03T06:29:53;4.87;;;1.30;;
4885;SDS011;2457;51.788;6.136;2022-07-03T06:32:20;5.10;;;1.40;;
4885;SDS011;2457;51.788;6.136;2022-07-03T06:34:48;3.30;;;1.30;;
4885;SDS011;2457;51.788;6.136;2022-07-03T06:37:15;3.27;;;0.97;;
4885;SDS011;2457;51.788;6.136;2022-07-03T06:39:42;4.63;;;1.10;;
4885;SDS011;2457;51.788;6.136;2022-07-03T06:42:10;5.40;;;1.30;;
4885;SDS011;2457;51.788;6.136;2022-07-03T06:44:37;3.37;;;1.20;;
4885;SDS011;2457;51.788;6.136;2022-07-03T06:47:04;3.70;;;1.00;;
4885;SDS011;2457;51.788;6.136;2022-07-03T06:49:32;3.67;;;1.20;;
4885;SDS011;2457;51.788;6.136;2022-07-03T06:51:59;8.90;;;1.23;;
4885;SDS011;2457;51.788;6.136;2022-07-03T06:54:27;3.37;;;1.20;;
4885;SDS011;2457;51.788;6.136;2022-07-03T06:56:54;3.30;;;1.40;;
4885;SDS011;2457;51.788;6.136;2022-07-03T06:59:21;5.63;;;1.50;;
4885;SDS011;2457;51.788;6.136;2022-07-03T07:01:48;3.87;;;1.40;;
4885;SDS011;2457;51.788;6.136;2022-07-03T07:04:16;6.63;;;1.27;;
4885;SDS011;2457;51.788;6.136;2022-07-03T07:06:43;4.30;;;1.70;;
4885;SDS011;2457;51.788;6.136;2022-07-03T07:09:10;5.30;;;1.80;;
4885;SDS011;2457;51.788;6.136;2022-07-03T07:11:38;6.87;;;1.53;;
4885;SDS011;2457;51.788;6.136;2022-07-03T07:14:05;5.43;;;1.50;;
4885;SDS011;2457;51.788;6.136;2022-07-03T07:16:32;4.47;;;1.60;;
4885;SDS011;2457;51.788;6.136;2022-07-03T07:18:59;4.53;;;1.60;;
4885;SDS011;2457;51.788;6.136;2022-07-03T07:21:27;3.87;;;1.00;;
4885;SDS011;2457;51.788;6.136;2022-07-03T07:23:54;4.50;;;1.40;;
4885;SDS011;2457;51.788;6.136;2022-07-03T07:26:21;4.00;;;1.30;;
4885;SDS011;2457;51.788;6.136;2022-07-03T07:28:49;4.30;;;1.23;;
4885;SDS011;2457;51.788;6.136;2022-07-03T07:31:16;4.63;;;1.67;;
4885;SDS011;2457;51.788;6.136;2022-07-03T07:33:43;6.03;;;1.70;;
4885;SDS011;2457;51.788;6.136;2022-07-03T07:36:11;3.90;;;1.40;;
4885;SDS011;2457;51.788;6.136;2022-07-03T07:38:38;4.47;;;1.40;;
4885;SDS011;2457;51.788;6.136;2022-07-03T07:41:06;3.57;;;1.43;;
4885;SDS011;2457;51.788;6.136;2022-07-03T07:43:33;3.20;;;1.20;;
4885;SDS011;2457;51.788;6.136;2022-07-03T07:46:00;6.20;;;1.20;;
4885;SDS011;2457;51.788;6.136;2022-07-03T07:48:28;6.97;;;1.40;;
4885;SDS011;2457;51.788;6.136;2022-07-03T07:50:56;5.97;;;1.40;;
4885;SDS011;2457;51.788;6.136;2022-07-03T07:53:23;3.73;;;1.13;;
4885;SDS011;2457;51.788;6.136;2022-07-03T07:55:50;6.53;;;1.57;;
4885;SDS011;2457;51.788;6.136;2022-07-03T07:58:18;3.00;;;1.20;;
4885;SDS011;2457;51.788;6.136;2022-07-03T08:00:45;5.53;;;1.57;;
4885;SDS011;2457;51.788;6.136;2022-07-03T08:03:31;5.87;;;1.80;;
4885;SDS011;2457;51.788;6.136;2022-07-03T08:06:17;5.00;;;1.40;;
4885;SDS011;2457;51.788;6.136;2022-07-03T08:08:44;5.50;;;1.30;;
4885;SDS011;2457;51.788;6.136;2022-07-03T08:11:11;4.40;;;1.63;;
4885;SDS011;2457;51.788;6.136;2022-07-03T08:13:39;10.20;;;1.77;;
4885;SDS011;2457;51.788;6.136;2022-07-03T08:16:06;3.10;;;1.20;;
4885;SDS011;2457;51.788;6.136;2022-07-03T08:18:33;3.57;;;1.37;;
4885;SDS011;2457;51.788;6.136;2022-07-03T08:21:01;3.20;;;1.10;;
4885;SDS011;2457;51.788;6.136;2022-07-03T08:23:28;7.17;;;1.27;;
4885;SDS011;2457;51.788;6.136;2022-07-03T08:25:55;3.73;;;1.20;;
4885;SDS011;2457;51.788;6.136;2022-07-03T08:28:22;3.70;;;1.40;;
4885;SDS011;2457;51.788;6.136;2022-07-03T08:30:49;3.30;;;1.20;;
4885;SDS011;2457;51.788;6.136;2022-07-03T08:33:17;3.50;;;1.10;;
4885;SDS011;2457;51.788;6.136;2022-07-03T08:35:44;5.77;;;1.17;;
4885;SDS011;2457;51.788;6.136;2022-07-03T08:38:11;3.77;;;1.23;;
4885;SDS011;2457;51.788;6.136;2022-07-03T08:40:39;4.17;;;1.40;;
4885;SDS011;2457;51.788;6.136;2022-07-03T08:43:07;3.40;;;1.10;;
4885;SDS011;2457;51.788;6.136;2022-07-03T08:45:34;3.60;;;1.20;;
4885;SDS011;2457;51.788;6.136;2022-07-03T08:48:01;2.90;;;1.00;;
4885;SDS011;2457;51.788;6.136;2022-07-03T08:50:29;3.20;;;1.23;;
4885;SDS011;2457;51.788;6.136;2022-07-03T08:52:56;3.50;;;1.13;;
4885;SDS011;2457;51.788;6.136;2022-07-03T08:55:24;5.80;;;1.27;;
4885;SDS011;2457;51.788;6.136;2022-07-03T08:57:51;3.87;;;1.13;;
4885;SDS011;2457;51.788;6.136;2022-07-03T09:00:20;3.30;;;1.27;;
4885;SDS011;2457;51.788;6.136;2022-07-03T09:02:48;3.43;;;1.10;;
4885;SDS011;2457;51.788;6.136;2022-07-03T09:05:16;4.77;;;1.00;;
4885;SDS011;2457;51.788;6.136;2022-07-03T09:07:45;3.27;;;0.90;;
4885;SDS011;2457;51.788;6.136;2022-07-03T09:10:13;3.90;;;1.50;;
4885;SDS011;2457;51.788;6.136;2022-07-03T09:12:42;4.23;;;1.20;;
4885;SDS011;2457;51.788;6.136;2022-07-03T09:15:09;3.00;;;1.07;;
4885;SDS011;2457;51.788;6.136;2022-07-03T09:17:37;7.23;;;1.37;;
4885;SDS011;2457;51.788;6.136;2022-07-03T09:20:05;3.13;;;1.03;;
4885;SDS011;2457;51.788;6.136;2022-07-03T09:22:34;3.30;;;1.10;;
4885;SDS011;2457;51.788;6.136;2022-07-03T09:27:48;3.57;;;1.13;;
4885;SDS011;2457;51.788;6.136;2022-07-03T09:30:08;4.73;;;0.93;;
4885;SDS011;2457;51.788;6.136;2022-07-03T09:32:41;9.17;;;2.60;;
4885;SDS011;2457;51.788;6.136;2022-07-03T09:35:17;2.70;;;1.00;;
4885;SDS011;2457;51.788;6.136;2022-07-03T09:37:57;2.60;;;0.90;;
4885;SDS011;2457;51.788;6.136;2022-07-03T09:41:07;4.43;;;1.20;;
4885;SDS011;2457;51.788;6.136;2022-07-03T09:42:59;2.90;;;1.10;;
4885;SDS011;2457;51.788;6.136;2022-07-03T09:45:27;3.60;;;1.10;;
4885;SDS011;2457;51.788;6.136;2022-07-03T09:47:54;3.83;;;1.30;;
4885;SDS011;2457;51.788;6.136;2022-07-03T09:50:22;3.40;;;1.10;;
4885;SDS011;2457;51.788;6.136;2022-07-03T09:52:49;3.87;;;1.20;;
4885;SDS011;2457;51.788;6.136;2022-07-03T09:55:17;4.00;;;1.07;;
4885;SDS011;2457;51.788;6.136;2022-07-03T10:00:18;9.70;;;1.43;;
4885;SDS011;2457;51.788;6.136;2022-07-03T10:05:22;4.20;;;1.30;;
4885;SDS011;2457;51.788;6.136;2022-07-03T10:07:50;2.83;;;1.10;;
4885;SDS011;2457;51.788;6.136;2022-07-03T10:10:24;3.23;;;1.10;;
4885;SDS011;2457;51.788;6.136;2022-07-03T10:12:48;3.50;;;1.30;;
4885;SDS011;2457;51.788;6.136;2022-07-03T10:15:17;3.63;;;1.40;;
4885;SDS011;2457;51.788;6.136;2022-07-03T10:17:50;4.70;;;1.87;;
4885;SDS011;2457;51.788;6.136;2022-07-03T10:20:13;4.80;;;1.67;;
4885;SDS011;2457;51.788;6.136;2022-07-03T10:22:45;4.03;;;1.20;;
4885;SDS011;2457;51.788;6.136;2022-07-03T10:25:13;5.30;;;1.63;;
4885;SDS011;2457;51.788;6.136;2022-07-03T10:27:40;3.77;;;1.27;;
4885;SDS011;2457;51.788;6.136;2022-07-03T10:30:08;5.17;;;1.23;;
4885;SDS011;2457;51.788;6.136;2022-07-03T10:32:36;4.20;;;1.50;;
4885;SDS011;2457;51.788;6.136;2022-07-03T10:35:05;4.50;;;1.43;;
4885;SDS011;2457;51.788;6.136;2022-07-03T10:37:38;4.17;;;1.20;;
4885;SDS011;2457;51.788;6.136;2022-07-03T10:40:09;3.50;;;1.20;;
4885;SDS011;2457;51.788;6.136;2022-07-03T10:42:56;3.40;;;1.50;;
4885;SDS011;2457;51.788;6.136;2022-07-03T10:46:27;4.23;;;0.97;;
4885;SDS011;2457;51.788;6.136;2022-07-03T10:48:10;2.90;;;1.20;;
4885;SDS011;2457;51.788;6.136;2022-07-03T10:50:37;4.20;;;1.40;;
4885;SDS011;2457;51.788;6.136;2022-07-03T10:58:28;7.50;;;1.40;;
4885;SDS011;2457;51.788;6.136;2022-07-03T11:00:55;3.80;;;1.30;;
4885;SDS011;2457;51.788;6.136;2022-07-03T11:06:09;5.87;;;1.57;;
4885;SDS011;2457;51.788;6.136;2022-07-03T11:14:31;3.47;;;1.20;;
4885;SDS011;2457;51.788;6.136;2022-07-03T11:19:40;3.43;;;1.23;;
4885;SDS011;2457;51.788;6.136;2022-07-03T11:22:09;5.27;;;1.60;;
4885;SDS011;2457;51.788;6.136;2022-07-03T11:24:41;4.77;;;1.47;;
4885;SDS011;2457;51.788;6.136;2022-07-03T11:27:26;3.40;;;1.50;;
4885;SDS011;2457;51.788;6.136;2022-07-03T11:29:40;5.90;;;1.70;;
4885;SDS011;2457;51.788;6.136;2022-07-03T11:34:53;3.60;;;1.50;;
4885;SDS011;2457;51.788;6.136;2022-07-03T11:37:20;4.23;;;1.50;;
4885;SDS011;2457;51.788;6.136;2022-07-03T11:39:47;3.33;;;1.40;;
4885;SDS011;2457;51.788;6.136;2022-07-03T11:42:15;4.10;;;1.57;;
4885;SDS011;2457;51.788;6.136;2022-07-03T11:44:44;3.93;;;1.33;;
4885;SDS011;2457;51.788;6.136;2022-07-03T11:47:11;5.17;;;1.20;;
4885;SDS011;2457;51.788;6.136;2022-07-03T11:49:47;3.10;;;1.13;;
4885;SDS011;2457;51.788;6.136;2022-07-03T11:52:09;9.80;;;1.70;;
4885;SDS011;2457;51.788;6.136;2022-07-03T11:54:49;3.63;;;1.33;;
4885;SDS011;2457;51.788;6.136;2022-07-03T11:57:17;3.63;;;1.20;;
4885;SDS011;2457;51.788;6.136;2022-07-03T11:59:44;4.80;;;1.25;;
4885;SDS011;2457;51.788;6.136;2022-07-03T12:02:11;5.30;;;1.43;;
4885;SDS011;2457;51.788;6.136;2022-07-03T12:04:39;6.90;;;1.27;;
4885;SDS011;2457;51.788;6.136;2022-07-03T12:07:07;3.20;;;1.43;;
4885;SDS011;2457;51.788;6.136;2022-07-03T12:09:35;3.00;;;1.30;;
4885;SDS011;2457;51.788;6.136;2022-07-03T12:12:03;2.90;;;1.20;;
4885;SDS011;2457;51.788;6.136;2022-07-03T12:14:34;4.10;;;1.50;;
4885;SDS011;2457;51.788;6.136;2022-07-03T12:17:01;4.00;;;1.37;;
4885;SDS011;2457;51.788;6.136;2022-07-03T12:19:29;2.83;;;1.10;;
4885;SDS011;2457;51.788;6.136;2022-07-03T12:21:56;3.67;;;1.10;;
4885;SDS011;2457;51.788;6.136;2022-07-03T12:24:24;4.60;;;1.40;;
4885;SDS011;2457;51.788;6.136;2022-07-03T12:26:51;7.57;;;1.47;;
4885;SDS011;2457;51.788;6.136;2022-07-03T12:29:18;2.90;;;1.20;;
4885;SDS011;2457;51.788;6.136;2022-07-03T12:31:46;3.50;;;1.07;;
4885;SDS011;2457;51.788;6.136;2022-07-03T12:34:15;4.20;;;1.33;;
4885;SDS011;2457;51.788;6.136;2022-07-03T12:36:55;4.03;;;1.33;;
4885;SDS011;2457;51.788;6.136;2022-07-03T12:39:23;3.10;;;1.40;;
4885;SDS011;2457;51.788;6.136;2022-07-03T12:41:51;4.93;;;1.60;;
4885;SDS011;2457;51.788;6.136;2022-07-03T12:44:18;4.90;;;1.50;;
4885;SDS011;2457;51.788;6.136;2022-07-03T12:46:47;3.43;;;1.37;;
4885;SDS011;2457;51.788;6.136;2022-07-03T12:49:14;3.20;;;1.10;;
4885;SDS011;2457;51.788;6.136;2022-07-03T12:51:43;3.50;;;1.40;;
4885;SDS011;2457;51.788;6.136;2022-07-03T12:54:11;5.43;;;1.40;;
4885;SDS011;2457;51.788;6.136;2022-07-03T12:56:39;4.40;;;1.17;;
4885;SDS011;2457;51.788;6.136;2022-07-03T12:59:06;7.27;;;1.40;;
4885;SDS011;2457;51.788;6.136;2022-07-03T13:01:46;2.90;;;1.17;;
4885;SDS011;2457;51.788;6.136;2022-07-03T13:04:14;5.00;;;1.50;;
4885;SDS011;2457;51.788;6.136;2022-07-03T13:06:44;3.70;;;1.20;;
4885;SDS011;2457;51.788;6.136;2022-07-03T13:09:14;8.27;;;1.43;;
4885;SDS011;2457;51.788;6.136;2022-07-03T13:11:41;3.90;;;1.25;;
4885;SDS011;2457;51.788;6.136;2022-07-03T13:14:12;3.30;;;1.10;;
4885;SDS011;2457;51.788;6.136;2022-07-03T13:16:41;6.50;;;1.40;;
4885;SDS011;2457;51.788;6.136;2022-07-03T13:19:09;4.37;;;1.27;;
4885;SDS011;2457;51.788;6.136;2022-07-03T13:21:36;4.40;;;1.20;;
4885;SDS011;2457;51.788;6.136;2022-07-03T13:24:04;3.70;;;1.40;;
4885;SDS011;2457;51.788;6.136;2022-07-03T13:26:32;3.50;;;1.40;;
4885;SDS011;2457;51.788;6.136;2022-07-03T13:28:59;3.27;;;1.10;;
4885;SDS011;2457;51.788;6.136;2022-07-03T13:31:27;3.30;;;1.30;;
4885;SDS011;2457;51.788;6.136;2022-07-03T13:33:58;6.10;;;1.70;;
4885;SDS011;2457;51.788;6.136;2022-07-03T13:36:26;5.20;;;1.10;;
4885;SDS011;2457;51.788;6.136;2022-07-03T13:38:53;4.13;;;1.43;;
4885;SDS011;2457;51.788;6.136;2022-07-03T13:41:20;4.80;;;1.20;;
4885;SDS011;2457;51.788;6.136;2022-07-03T13:43:49;4.20;;;1.40;;
4885;SDS011;2457;51.788;6.136;2022-07-03T13:46:18;4.60;;;1.37;;
4885;SDS011;2457;51.788;6.136;2022-07-03T13:48:47;2.77;;;1.20;;
4885;SDS011;2457;51.788;6.136;2022-07-03T13:51:14;5.00;;;1.47;;
4885;SDS011;2457;51.788;6.136;2022-07-03T13:53:42;3.50;;;1.27;;
4885;SDS011;2457;51.788;6.136;2022-07-03T13:56:09;4.03;;;1.40;;
4885;SDS011;2457;51.788;6.136;2022-07-03T13:58:36;3.40;;;1.10;;
4885;SDS011;2457;51.788;6.136;2022-07-03T14:01:03;3.30;;;1.37;;
4885;SDS011;2457;51.788;6.136;2022-07-03T14:03:31;8.50;;;1.30;;
4885;SDS011;2457;51.788;6.136;2022-07-03T14:05:58;4.50;;;1.20;;
4885;SDS011;2457;51.788;6.136;2022-07-03T14:08:26;2.90;;;1.10;;
4885;SDS011;2457;51.788;6.136;2022-07-03T14:10:53;2.80;;;1.00;;
4885;SDS011;2457;51.788;6.136;2022-07-03T14:13:20;4.93;;;1.40;;
4885;SDS011;2457;51.788;6.136;2022-07-03T14:15:47;2.90;;;1.00;;
4885;SDS011;2457;51.788;6.136;2022-07-03T14:18:15;3.30;;;1.00;;
4885;SDS011;2457;51.788;6.136;2022-07-03T14:20:42;5.90;;;1.40;;
4885;SDS011;2457;51.788;6.136;2022-07-03T14:23:09;2.90;;;1.30;;
4885;SDS011;2457;51.788;6.136;2022-07-03T14:25:36;3.90;;;1.20;;
4885;SDS011;2457;51.788;6.136;2022-07-03T14:28:04;4.13;;;1.37;;
4885;SDS011;2457;51.788;6.136;2022-07-03T14:30:49;6.90;;;1.40;;
4885;SDS011;2457;51.788;6.136;2022-07-03T14:33:34;3.87;;;1.60;;
4885;SDS011;2457;51.788;6.136;2022-07-03T14:36:01;3.47;;;1.67;;
4885;SDS011;2457;51.788;6.136;2022-07-03T14:38:29;5.90;;;1.50;;
4885;SDS011;2457;51.788;6.136;2022-07-03T14:40:56;7.17;;;1.57;;
4885;SDS011;2457;51.788;6.136;2022-07-03T14:43:23;3.63;;;1.40;;
4885;SDS011;2457;51.788;6.136;2022-07-03T14:45:51;4.70;;;1.37;;
4885;SDS011;2457;51.788;6.136;2022-07-03T14:48:18;2.90;;;1.10;;
4885;SDS011;2457;51.788;6.136;2022-07-03T14:50:46;3.10;;;1.20;;
4885;SDS011;2457;51.788;6.136;2022-07-03T14:53:14;3.10;;;1.00;;
4885;SDS011;2457;51.788;6.136;2022-07-03T14:55:41;3.33;;;1.10;;
4885;SDS011;2457;51.788;6.136;2022-07-03T14:58:15;9.70;;;1.40;;
4885;SDS011;2457;51.788;6.136;2022-07-03T15:00:49;5.00;;;1.43;;
4885;SDS011;2457;51.788;6.136;2022-07-03T15:03:16;3.50;;;1.50;;
4885;SDS011;2457;51.788;6.136;2022-07-03T15:05:43;4.30;;;1.53;;
4885;SDS011;2457;51.788;6.136;2022-07-03T15:08:20;3.67;;;1.50;;
4885;SDS011;2457;51.788;6.136;2022-07-03T15:10:44;4.40;;;1.33;;
4885;SDS011;2457;51.788;6.136;2022-07-03T15:13:11;3.77;;;1.83;;
4885;SDS011;2457;51.788;6.136;2022-07-03T15:15:40;4.00;;;1.40;;
4885;SDS011;2457;51.788;6.136;2022-07-03T15:18:09;3.23;;;1.37;;
4885;SDS011;2457;51.788;6.136;2022-07-03T15:20:37;5.67;;;1.70;;
4885;SDS011;2457;51.788;6.136;2022-07-03T15:23:05;4.27;;;1.70;;
4885;SDS011;2457;51.788;6.136;2022-07-03T15:25:33;5.43;;;2.00;;
4885;SDS011;2457;51.788;6.136;2022-07-03T15:28:00;3.60;;;1.27;;
4885;SDS011;2457;51.788;6.136;2022-07-03T15:30:28;6.80;;;1.77;;
4885;SDS011;2457;51.788;6.136;2022-07-03T15:32:55;3.93;;;1.57;;
4885;SDS011;2457;51.788;6.136;2022-07-03T15:35:23;5.23;;;1.80;;
4885;SDS011;2457;51.788;6.136;2022-07-03T15:38:10;3.93;;;1.30;;
4885;SDS011;2457;51.788;6.136;2022-07-03T15:43:27;6.40;;;1.43;;
4885;SDS011;2457;51.788;6.136;2022-07-03T15:46:05;3.70;;;1.40;;
4885;SDS011;2457;51.788;6.136;2022-07-03T15:48:44;4.40;;;1.43;;
4885;SDS011;2457;51.788;6.136;2022-07-03T15:53:44;4.00;;;1.50;;
4885;SDS011;2457;51.788;6.136;2022-07-03T15:56:13;3.20;;;1.30;;
4885;SDS011;2457;51.788;6.136;2022-07-03T15:58:43;16.80;;;1.70;;
4885;SDS011;2457;51.788;6.136;2022-07-03T16:01:10;7.20;;;1.40;;
4885;SDS011;2457;51.788;6.136;2022-07-03T16:04:06;3.43;;;1.33;;
4885;SDS011;2457;51.788;6.136;2022-07-03T16:06:31;4.50;;;1.43;;
4885;SDS011;2457;51.788;6.136;2022-07-03T16:08:59;6.73;;;1.60;;